Dover, OH (44622)

7:58 AM EDT on August 25, 2016 (GMT -0400)
Fox Chase | | Change Station

Elev 994 ft 40.54 °N, 81.41 °W | Updated 5 minutes ago

Partly Cloudy
Partly Cloudy
72.1 °F
Feels Like 72.1 °F
N
2.7
Wind Variable Wind from SSE

Today
High -- | Low -- °F
--% Chance of Precip.
Yesterday
High -- | Low -- °F
Precip. -- in
Pressure 30.05 in
Visibility 10.0 miles
Clouds Few 900 ft
Dew Point 69 °F
Humidity 89%
Rainfall 0.00 in
Snow Depth Not available.
6:46 AM 8:08 PM
Last Quarter, 46% visible
METAR KPHD 251153Z AUTO 22003KT 10SM FEW009 24/21 A3007 RMK AO2 SLP175 60000 T02440211 10267 20233 53003
Pressure 30.05 in
Visibility 10.0 miles
Clouds Few 900 ft
Dew Point 69 °F
Humidity 89%
Rainfall 0.00 in
Snow Depth Not available.
6:46 AM 8:08 PM
Last Quarter, 46% visible
METAR KPHD 251153Z AUTO 22003KT 10SM FEW009 24/21 A3007 RMK AO2 SLP175 60000 T02440211 10267 20233 53003

10-Day Weather Forecast

Almanac

Astronomy

Aug. 25, 2016 Rise Set
Actual Time
Civil Twilight
Nautical Twilight
Astronomical Twilight
Moon
Length of Visible Light
Length of Day
Tomorrow will be .
, % of the Moon is Illuminated

Today's Extremes

State Highs State Lows

Community

WunderPhotos

Upload Photos

1,934,821 photos uploaded!

WunderBlog® & News

Nearby

Air Quality

  Air Quality AQ Index Pollutant
Not available.

Snow Depth

Station Depth Elevation

Earthquake Activity

City Distance Mag. Time & Date
Minimum magnitude displayed is 2.5.

Coastal Water Temperatures

Place Temperature

Stations

Nearby Weather Stations

Station Location Temp. Windchill Dew Point Humidity Wind Precip. Elev Updated Type
                   

Watches & Warnings

There are currently no watches in effect.